sensor_id;sensor_type;location;lat;lon;timestamp;pressure;altitude;pressure_sealevel;temperature;humidity
41706;BME280;27385;51.096;17.190;2022-12-18T00:02:00;101924.47;;;-5.07;92.42
41706;BME280;27385;51.096;17.190;2022-12-18T00:04:32;101921.48;;;-5.07;92.45
41706;BME280;27385;51.096;17.190;2022-12-18T00:07:03;101917.02;;;-5.10;92.41
41706;BME280;27385;51.096;17.190;2022-12-18T00:09:34;101917.95;;;-5.12;92.49
41706;BME280;27385;51.096;17.190;2022-12-18T00:12:07;101926.48;;;-5.15;92.37
41706;BME280;27385;51.096;17.190;2022-12-18T00:14:39;101928.48;;;-5.19;92.41
41706;BME280;27385;51.096;17.190;2022-12-18T00:17:15;101932.41;;;-5.22;92.50
41706;BME280;27385;51.096;17.190;2022-12-18T00:19:46;101936.57;;;-5.26;92.47
41706;BME280;27385;51.096;17.190;2022-12-18T00:22:22;101937.90;;;-5.28;92.48
41706;BME280;27385;51.096;17.190;2022-12-18T00:24:54;101938.26;;;-5.31;92.56
41706;BME280;27385;51.096;17.190;2022-12-18T00:27:25;101945.02;;;-5.33;92.75
41706;BME280;27385;51.096;17.190;2022-12-18T00:29:57;101947.46;;;-5.36;92.78
41706;BME280;27385;51.096;17.190;2022-12-18T00:32:28;101947.09;;;-5.39;92.71
41706;BME280;27385;51.096;17.190;2022-12-18T00:35:00;101946.91;;;-5.42;92.79
41706;BME280;27385;51.096;17.190;2022-12-18T00:37:31;101947.45;;;-5.44;92.78
41706;BME280;27385;51.096;17.190;2022-12-18T00:40:05;101949.95;;;-5.44;92.91
41706;BME280;27385;51.096;17.190;2022-12-18T00:42:40;101958.45;;;-5.43;92.95
41706;BME280;27385;51.096;17.190;2022-12-18T00:45:28;101966.52;;;-5.46;92.86
41706;BME280;27385;51.096;17.190;2022-12-18T00:48:00;101967.42;;;-5.48;92.94
41706;BME280;27385;51.096;17.190;2022-12-18T00:50:32;101969.84;;;-5.50;92.95
41706;BME280;27385;51.096;17.190;2022-12-18T00:53:04;101974.23;;;-5.51;93.08
41706;BME280;27385;51.096;17.190;2022-12-18T00:55:40;101977.17;;;-5.51;93.18
41706;BME280;27385;51.096;17.190;2022-12-18T00:58:12;101981.27;;;-5.50;93.16
41706;BME280;27385;51.096;17.190;2022-12-18T01:00:44;101985.27;;;-5.49;93.17
41706;BME280;27385;51.096;17.190;2022-12-18T01:03:16;101990.29;;;-5.46;93.21
41706;BME280;27385;51.096;17.190;2022-12-18T01:05:47;101998.81;;;-5.43;93.21
41706;BME280;27385;51.096;17.190;2022-12-18T01:08:19;102005.92;;;-5.42;93.25
41706;BME280;27385;51.096;17.190;2022-12-18T01:10:51;102007.96;;;-5.42;93.19
41706;BME280;27385;51.096;17.190;2022-12-18T01:13:23;102012.95;;;-5.41;93.21
41706;BME280;27385;51.096;17.190;2022-12-18T01:15:54;102015.58;;;-5.42;93.21
41706;BME280;27385;51.096;17.190;2022-12-18T01:18:26;102012.80;;;-5.43;93.25
41706;BME280;27385;51.096;17.190;2022-12-18T01:20:58;102013.30;;;-5.46;93.34
41706;BME280;27385;51.096;17.190;2022-12-18T01:23:30;102014.39;;;-5.48;93.19
41706;BME280;27385;51.096;17.190;2022-12-18T01:26:06;102014.98;;;-5.49;93.32
41706;BME280;27385;51.096;17.190;2022-12-18T01:28:37;102016.80;;;-5.50;93.41
41706;BME280;27385;51.096;17.190;2022-12-18T01:31:20;102018.13;;;-5.50;93.43
41706;BME280;27385;51.096;17.190;2022-12-18T01:33:52;102025.06;;;-5.48;93.51
41706;BME280;27385;51.096;17.190;2022-12-18T01:36:25;102027.35;;;-5.45;93.59
41706;BME280;27385;51.096;17.190;2022-12-18T01:39:01;102033.08;;;-5.44;93.57
41706;BME280;27385;51.096;17.190;2022-12-18T01:41:34;102033.20;;;-5.43;93.53
41706;BME280;27385;51.096;17.190;2022-12-18T01:47:27;102030.97;;;-5.44;93.55
41706;BME280;27385;51.096;17.190;2022-12-18T01:50:02;102033.96;;;-5.43;93.60
41706;BME280;27385;51.096;17.190;2022-12-18T01:52:34;102037.23;;;-5.41;93.68
41706;BME280;27385;51.096;17.190;2022-12-18T01:55:08;102037.13;;;-5.41;93.59
41706;BME280;27385;51.096;17.190;2022-12-18T01:57:42;102035.11;;;-5.43;93.55
41706;BME280;27385;51.096;17.190;2022-12-18T02:00:22;102033.66;;;-5.42;93.60
41706;BME280;27385;51.096;17.190;2022-12-18T02:02:57;102039.30;;;-5.40;93.68
41706;BME280;27385;51.096;17.190;2022-12-18T02:05:43;102044.68;;;-5.37;93.62
41706;BME280;27385;51.096;17.190;2022-12-18T02:08:20;102047.61;;;-5.36;93.62
41706;BME280;27385;51.096;17.190;2022-12-18T02:11:00;102047.75;;;-5.34;93.62
41706;BME280;27385;51.096;17.190;2022-12-18T02:13:40;102049.85;;;-5.32;93.65
41706;BME280;27385;51.096;17.190;2022-12-18T02:16:19;102046.21;;;-5.30;93.73
41706;BME280;27385;51.096;17.190;2022-12-18T02:18:58;102041.81;;;-5.26;93.75
41706;BME280;27385;51.096;17.190;2022-12-18T02:21:36;102044.09;;;-5.19;93.75
41706;BME280;27385;51.096;17.190;2022-12-18T02:24:22;102047.27;;;-5.14;93.78
41706;BME280;27385;51.096;17.190;2022-12-18T02:27:02;102054.44;;;-5.10;93.67
41706;BME280;27385;51.096;17.190;2022-12-18T02:29:40;102056.58;;;-5.08;93.61
41706;BME280;27385;51.096;17.190;2022-12-18T02:32:16;102060.21;;;-5.03;93.62
41706;BME280;27385;51.096;17.190;2022-12-18T02:34:50;102057.38;;;-4.98;93.63
41706;BME280;27385;51.096;17.190;2022-12-18T02:37:25;102058.91;;;-4.94;93.58
41706;BME280;27385;51.096;17.190;2022-12-18T02:40:00;102064.36;;;-4.92;93.40
41706;BME280;27385;51.096;17.190;2022-12-18T02:42:34;102070.84;;;-4.92;93.34
41706;BME280;27385;51.096;17.190;2022-12-18T02:45:06;102068.46;;;-4.93;93.33
41706;BME280;27385;51.096;17.190;2022-12-18T02:47:42;102064.48;;;-4.91;93.35
41706;BME280;27385;51.096;17.190;2022-12-18T02:50:19;102067.96;;;-4.90;93.39
41706;BME280;27385;51.096;17.190;2022-12-18T02:53:03;102074.11;;;-4.84;93.48
41706;BME280;27385;51.096;17.190;2022-12-18T02:55:55;102068.73;;;-4.80;93.37
41706;BME280;27385;51.096;17.190;2022-12-18T02:58:33;102069.73;;;-4.76;93.35
41706;BME280;27385;51.096;17.190;2022-12-18T03:01:11;102072.38;;;-4.74;93.40
41706;BME280;27385;51.096;17.190;2022-12-18T03:03:50;102077.88;;;-4.73;93.25
41706;BME280;27385;51.096;17.190;2022-12-18T03:06:26;102081.05;;;-4.69;93.27
41706;BME280;27385;51.096;17.190;2022-12-18T03:09:01;102079.86;;;-4.68;93.18
41706;BME280;27385;51.096;17.190;2022-12-18T03:11:37;102078.26;;;-4.71;93.04
41706;BME280;27385;51.096;17.190;2022-12-18T03:14:30;102076.99;;;-4.74;93.09
41706;BME280;27385;51.096;17.190;2022-12-18T03:17:05;102073.93;;;-4.72;93.11
41706;BME280;27385;51.096;17.190;2022-12-18T03:19:45;102080.36;;;-4.71;93.14
41706;BME280;27385;51.096;17.190;2022-12-18T03:22:21;102084.55;;;-4.71;93.10
41706;BME280;27385;51.096;17.190;2022-12-18T03:24:55;102090.03;;;-4.73;93.00
41706;BME280;27385;51.096;17.190;2022-12-18T03:27:29;102092.70;;;-4.74;92.99
41706;BME280;27385;51.096;17.190;2022-12-18T03:30:05;102099.31;;;-4.76;92.95
41706;BME280;27385;51.096;17.190;2022-12-18T03:32:44;102091.63;;;-4.76;92.96
41706;BME280;27385;51.096;17.190;2022-12-18T03:35:23;102094.00;;;-4.71;93.06
41706;BME280;27385;51.096;17.190;2022-12-18T03:37:56;102100.22;;;-4.67;93.16
41706;BME280;27385;51.096;17.190;2022-12-18T03:40:34;102095.42;;;-4.66;93.03
41706;BME280;27385;51.096;17.190;2022-12-18T03:43:10;102092.55;;;-4.66;93.01
41706;BME280;27385;51.096;17.190;2022-12-18T03:45:46;102093.59;;;-4.67;92.99
41706;BME280;27385;51.096;17.190;2022-12-18T03:48:26;102094.48;;;-4.64;93.07
41706;BME280;27385;51.096;17.190;2022-12-18T03:51:05;102097.54;;;-4.60;93.03
41706;BME280;27385;51.096;17.190;2022-12-18T03:53:41;102097.31;;;-4.62;92.83
41706;BME280;27385;51.096;17.190;2022-12-18T03:56:18;102102.92;;;-4.63;92.62
41706;BME280;27385;51.096;17.190;2022-12-18T03:58:51;102102.27;;;-4.62;92.78
41706;BME280;27385;51.096;17.190;2022-12-18T04:01:28;102101.98;;;-4.58;92.87
41706;BME280;27385;51.096;17.190;2022-12-18T04:04:02;102107.73;;;-4.56;92.74
41706;BME280;27385;51.096;17.190;2022-12-18T04:06:38;102107.33;;;-4.58;92.64
41706;BME280;27385;51.096;17.190;2022-12-18T04:09:11;102111.86;;;-4.60;92.61
41706;BME280;27385;51.096;17.190;2022-12-18T04:11:43;102115.99;;;-4.60;92.78
41706;BME280;27385;51.096;17.190;2022-12-18T04:14:14;102119.34;;;-4.56;92.88
41706;BME280;27385;51.096;17.190;2022-12-18T04:16:46;102120.02;;;-4.52;92.79
41706;BME280;27385;51.096;17.190;2022-12-18T04:19:17;102122.98;;;-4.50;92.81
41706;BME280;27385;51.096;17.190;2022-12-18T04:21:49;102126.74;;;-4.47;92.68
41706;BME280;27385;51.096;17.190;2022-12-18T04:24:20;102131.42;;;-4.47;92.65
41706;BME280;27385;51.096;17.190;2022-12-18T04:26:52;102135.44;;;-4.48;92.48
41706;BME280;27385;51.096;17.190;2022-12-18T04:29:24;102138.16;;;-4.48;92.61
41706;BME280;27385;51.096;17.190;2022-12-18T04:31:56;102139.23;;;-4.46;92.58
41706;BME280;27385;51.096;17.190;2022-12-18T04:34:28;102140.46;;;-4.47;92.47
41706;BME280;27385;51.096;17.190;2022-12-18T04:37:00;102133.63;;;-4.51;92.35
41706;BME280;27385;51.096;17.190;2022-12-18T04:39:34;102141.42;;;-4.55;92.31
41706;BME280;27385;51.096;17.190;2022-12-18T04:42:13;102152.89;;;-4.54;92.54
41706;BME280;27385;51.096;17.190;2022-12-18T04:44:44;102158.40;;;-4.53;92.39
41706;BME280;27385;51.096;17.190;2022-12-18T04:47:16;102165.23;;;-4.53;92.39
41706;BME280;27385;51.096;17.190;2022-12-18T04:49:47;102169.37;;;-4.53;92.47
41706;BME280;27385;51.096;17.190;2022-12-18T04:52:19;102171.21;;;-4.51;92.47
41706;BME280;27385;51.096;17.190;2022-12-18T04:54:50;102173.62;;;-4.52;92.33
41706;BME280;27385;51.096;17.190;2022-12-18T04:57:21;102173.20;;;-4.54;92.25
41706;BME280;27385;51.096;17.190;2022-12-18T04:59:53;102175.06;;;-4.56;92.19
41706;BME280;27385;51.096;17.190;2022-12-18T05:02:24;102178.98;;;-4.56;92.31
41706;BME280;27385;51.096;17.190;2022-12-18T05:04:56;102179.41;;;-4.53;92.42
41706;BME280;27385;51.096;17.190;2022-12-18T05:07:28;102176.91;;;-4.49;92.51
41706;BME280;27385;51.096;17.190;2022-12-18T05:09:59;102178.20;;;-4.50;92.25
41706;BME280;27385;51.096;17.190;2022-12-18T05:12:30;102176.75;;;-4.49;92.31
41706;BME280;27385;51.096;17.190;2022-12-18T05:15:10;102184.10;;;-4.49;92.13
41706;BME280;27385;51.096;17.190;2022-12-18T05:17:41;102181.71;;;-4.50;92.07
41706;BME280;27385;51.096;17.190;2022-12-18T05:20:13;102177.50;;;-4.48;92.27
41706;BME280;27385;51.096;17.190;2022-12-18T05:22:44;102180.46;;;-4.48;92.10
41706;BME280;27385;51.096;17.190;2022-12-18T05:25:16;102181.30;;;-4.48;92.09
41706;BME280;27385;51.096;17.190;2022-12-18T05:27:48;102184.52;;;-4.52;91.87
41706;BME280;27385;51.096;17.190;2022-12-18T05:30:21;102191.30;;;-4.54;91.88
41706;BME280;27385;51.096;17.190;2022-12-18T05:32:52;102188.45;;;-4.55;91.94
41706;BME280;27385;51.096;17.190;2022-12-18T05:35:24;102191.78;;;-4.53;92.02
41706;BME280;27385;51.096;17.190;2022-12-18T05:37:55;102192.27;;;-4.51;92.02
41706;BME280;27385;51.096;17.190;2022-12-18T05:40:27;102190.73;;;-4.50;92.02
41706;BME280;27385;51.096;17.190;2022-12-18T05:42:59;102193.79;;;-4.50;91.89
41706;BME280;27385;51.096;17.190;2022-12-18T05:45:40;102192.34;;;-4.51;91.68
41706;BME280;27385;51.096;17.190;2022-12-18T05:48:14;102196.30;;;-4.51;91.90
41706;BME280;27385;51.096;17.190;2022-12-18T05:50:47;102197.36;;;-4.52;91.73
41706;BME280;27385;51.096;17.190;2022-12-18T05:53:20;102201.33;;;-4.52;91.68
41706;BME280;27385;51.096;17.190;2022-12-18T05:55:51;102202.98;;;-4.53;91.62
41706;BME280;27385;51.096;17.190;2022-12-18T05:58:23;102210.91;;;-4.56;91.53
41706;BME280;27385;51.096;17.190;2022-12-18T06:00:54;102221.75;;;-4.57;91.40
41706;BME280;27385;51.096;17.190;2022-12-18T06:03:25;102226.01;;;-4.58;91.50
41706;BME280;27385;51.096;17.190;2022-12-18T06:05:58;102231.05;;;-4.57;91.52
41706;BME280;27385;51.096;17.190;2022-12-18T06:08:32;102237.25;;;-4.53;91.64
41706;BME280;27385;51.096;17.190;2022-12-18T06:11:03;102238.51;;;-4.53;91.55
41706;BME280;27385;51.096;17.190;2022-12-18T06:13:35;102240.29;;;-4.55;91.32
41706;BME280;27385;51.096;17.190;2022-12-18T06:16:07;102238.01;;;-4.56;91.41
41706;BME280;27385;51.096;17.190;2022-12-18T06:18:43;102240.81;;;-4.60;91.19
41706;BME280;27385;51.096;17.190;2022-12-18T06:21:15;102239.10;;;-4.62;91.10
41706;BME280;27385;51.096;17.190;2022-12-18T06:23:47;102250.49;;;-4.65;91.00
41706;BME280;27385;51.096;17.190;2022-12-18T06:26:21;102249.55;;;-4.67;91.13
41706;BME280;27385;51.096;17.190;2022-12-18T06:28:53;102251.20;;;-4.65;91.40
41706;BME280;27385;51.096;17.190;2022-12-18T06:31:24;102253.79;;;-4.62;91.36
41706;BME280;27385;51.096;17.190;2022-12-18T06:33:57;102258.59;;;-4.63;91.19
41706;BME280;27385;51.096;17.190;2022-12-18T06:36:31;102264.75;;;-4.63;91.22
41706;BME280;27385;51.096;17.190;2022-12-18T06:39:02;102270.86;;;-4.62;91.13
41706;BME280;27385;51.096;17.190;2022-12-18T06:41:34;102273.74;;;-4.61;91.22
41706;BME280;27385;51.096;17.190;2022-12-18T06:44:06;102272.17;;;-4.60;91.33
41706;BME280;27385;51.096;17.190;2022-12-18T06:46:38;102280.52;;;-4.60;91.27
41706;BME280;27385;51.096;17.190;2022-12-18T06:49:09;102280.20;;;-4.58;91.39
41706;BME280;27385;51.096;17.190;2022-12-18T06:51:41;102283.55;;;-4.58;90.99
41706;BME280;27385;51.096;17.190;2022-12-18T06:54:12;102287.47;;;-4.58;90.94
41706;BME280;27385;51.096;17.190;2022-12-18T06:56:46;102288.71;;;-4.57;91.01
41706;BME280;27385;51.096;17.190;2022-12-18T06:59:17;102288.90;;;-4.57;91.11
41706;BME280;27385;51.096;17.190;2022-12-18T07:01:49;102291.11;;;-4.56;91.14
41706;BME280;27385;51.096;17.190;2022-12-18T07:04:21;102296.83;;;-4.53;91.10
41706;BME280;27385;51.096;17.190;2022-12-18T07:06:54;102294.74;;;-4.51;91.25
41706;BME280;27385;51.096;17.190;2022-12-18T07:09:26;102299.26;;;-4.49;91.26
41706;BME280;27385;51.096;17.190;2022-12-18T07:11:58;102300.12;;;-4.47;91.35
41706;BME280;27385;51.096;17.190;2022-12-18T07:14:30;102306.20;;;-4.47;91.21
41706;BME280;27385;51.096;17.190;2022-12-18T07:17:01;102306.23;;;-4.48;90.90
41706;BME280;27385;51.096;17.190;2022-12-18T07:19:33;102309.23;;;-4.51;90.59
41706;BME280;27385;51.096;17.190;2022-12-18T07:22:05;102311.53;;;-4.54;90.73
41706;BME280;27385;51.096;17.190;2022-12-18T07:24:37;102310.69;;;-4.53;90.81
41706;BME280;27385;51.096;17.190;2022-12-18T07:27:09;102315.14;;;-4.53;90.77
41706;BME280;27385;51.096;17.190;2022-12-18T07:29:40;102320.50;;;-4.53;90.74
41706;BME280;27385;51.096;17.190;2022-12-18T07:32:12;102320.75;;;-4.57;90.61
41706;BME280;27385;51.096;17.190;2022-12-18T07:34:43;102319.88;;;-4.56;90.96
41706;BME280;27385;51.096;17.190;2022-12-18T07:37:15;102325.50;;;-4.53;91.04
41706;BME280;27385;51.096;17.190;2022-12-18T07:39:58;102323.98;;;-4.52;90.85
41706;BME280;27385;51.096;17.190;2022-12-18T07:42:30;102330.52;;;-4.52;90.81
41706;BME280;27385;51.096;17.190;2022-12-18T07:45:03;102333.84;;;-4.51;90.80
41706;BME280;27385;51.096;17.190;2022-12-18T07:47:35;102340.38;;;-4.51;90.63
41706;BME280;27385;51.096;17.190;2022-12-18T07:50:08;102347.33;;;-4.51;90.72
41706;BME280;27385;51.096;17.190;2022-12-18T07:52:41;102345.98;;;-4.49;90.80
41706;BME280;27385;51.096;17.190;2022-12-18T07:55:13;102342.09;;;-4.47;90.85
41706;BME280;27385;51.096;17.190;2022-12-18T07:57:45;102342.65;;;-4.42;91.15
41706;BME280;27385;51.096;17.190;2022-12-18T08:00:18;102339.94;;;-4.37;90.97
41706;BME280;27385;51.096;17.190;2022-12-18T08:02:50;102337.55;;;-4.35;90.85
41706;BME280;27385;51.096;17.190;2022-12-18T08:05:22;102346.69;;;-4.34;90.61
41706;BME280;27385;51.096;17.190;2022-12-18T08:07:54;102349.90;;;-4.34;90.76
41706;BME280;27385;51.096;17.190;2022-12-18T08:10:26;102351.72;;;-4.33;90.61
41706;BME280;27385;51.096;17.190;2022-12-18T08:12:57;102355.19;;;-4.33;90.64
41706;BME280;27385;51.096;17.190;2022-12-18T08:15:29;102358.45;;;-4.32;90.66
41706;BME280;27385;51.096;17.190;2022-12-18T08:18:01;102362.30;;;-4.32;90.60
41706;BME280;27385;51.096;17.190;2022-12-18T08:20:33;102368.73;;;-4.31;90.55
41706;BME280;27385;51.096;17.190;2022-12-18T08:23:04;102376.00;;;-4.32;90.35
41706;BME280;27385;51.096;17.190;2022-12-18T08:25:36;102379.88;;;-4.32;90.40
41706;BME280;27385;51.096;17.190;2022-12-18T08:28:08;102378.44;;;-4.33;90.28
41706;BME280;27385;51.096;17.190;2022-12-18T08:30:39;102378.48;;;-4.34;90.30
41706;BME280;27385;51.096;17.190;2022-12-18T08:33:13;102382.00;;;-4.34;90.22
41706;BME280;27385;51.096;17.190;2022-12-18T08:35:44;102384.08;;;-4.35;90.29
41706;BME280;27385;51.096;17.190;2022-12-18T08:38:17;102386.19;;;-4.36;90.17
41706;BME280;27385;51.096;17.190;2022-12-18T08:40:49;102388.96;;;-4.35;90.19
41706;BME280;27385;51.096;17.190;2022-12-18T08:43:20;102392.45;;;-4.32;90.34
41706;BME280;27385;51.096;17.190;2022-12-18T08:46:09;102401.65;;;-4.29;90.25
41706;BME280;27385;51.096;17.190;2022-12-18T08:48:43;102402.39;;;-4.29;90.16
41706;BME280;27385;51.096;17.190;2022-12-18T08:51:17;102405.08;;;-4.28;90.21
41706;BME280;27385;51.096;17.190;2022-12-18T08:53:49;102410.30;;;-4.27;90.08
41706;BME280;27385;51.096;17.190;2022-12-18T08:56:21;102422.11;;;-4.27;90.11
41706;BME280;27385;51.096;17.190;2022-12-18T08:58:54;102417.02;;;-4.22;90.39
41706;BME280;27385;51.096;17.190;2022-12-18T09:01:26;102414.48;;;-4.16;90.42
41706;BME280;27385;51.096;17.190;2022-12-18T09:03:58;102404.73;;;-4.14;90.03
41706;BME280;27385;51.096;17.190;2022-12-18T09:06:32;102403.70;;;-4.12;89.98
41706;BME280;27385;51.096;17.190;2022-12-18T09:09:03;102402.63;;;-4.12;90.06
41706;BME280;27385;51.096;17.190;2022-12-18T09:11:35;102402.80;;;-4.07;90.11
41706;BME280;27385;51.096;17.190;2022-12-18T09:14:08;102404.95;;;-4.03;90.10
41706;BME280;27385;51.096;17.190;2022-12-18T09:16:40;102403.15;;;-3.98;90.03
41706;BME280;27385;51.096;17.190;2022-12-18T09:19:13;102398.20;;;-3.94;90.10
41706;BME280;27385;51.096;17.190;2022-12-18T09:21:47;102392.61;;;-3.93;89.62
41706;BME280;27385;51.096;17.190;2022-12-18T09:24:19;102385.03;;;-3.94;89.50
41706;BME280;27385;51.096;17.190;2022-12-18T09:26:55;102381.73;;;-3.90;89.54
41706;BME280;27385;51.096;17.190;2022-12-18T09:29:27;102377.63;;;-3.86;89.94
41706;BME280;27385;51.096;17.190;2022-12-18T09:32:02;102374.08;;;-3.81;89.75
41706;BME280;27385;51.096;17.190;2022-12-18T09:34:34;102366.23;;;-3.80;89.47
41706;BME280;27385;51.096;17.190;2022-12-18T09:37:05;102360.75;;;-3.79;89.50
41706;BME280;27385;51.096;17.190;2022-12-18T09:39:40;102354.34;;;-3.77;89.39
41706;BME280;27385;51.096;17.190;2022-12-18T09:42:19;102348.73;;;-3.75;89.41
41706;BME280;27385;51.096;17.190;2022-12-18T09:44:54;102346.62;;;-3.75;89.35
41706;BME280;27385;51.096;17.190;2022-12-18T09:47:29;102344.14;;;-3.73;89.34
41706;BME280;27385;51.096;17.190;2022-12-18T09:50:07;102343.61;;;-3.73;89.15
41706;BME280;27385;51.096;17.190;2022-12-18T09:52:53;102342.77;;;-3.68;89.36
41706;BME280;27385;51.096;17.190;2022-12-18T09:55:28;102344.86;;;-3.67;89.07
41706;BME280;27385;51.096;17.190;2022-12-18T09:58:05;102348.43;;;-3.69;89.11
41706;BME280;27385;51.096;17.190;2022-12-18T10:00:38;102347.46;;;-3.68;89.15
41706;BME280;27385;51.096;17.190;2022-12-18T10:03:14;102348.95;;;-3.68;88.85
41706;BME280;27385;51.096;17.190;2022-12-18T10:05:55;102345.63;;;-3.67;89.10
41706;BME280;27385;51.096;17.190;2022-12-18T10:08:33;102348.48;;;-3.64;88.99
41706;BME280;27385;51.096;17.190;2022-12-18T10:11:24;102346.11;;;-3.65;88.80
41706;BME280;27385;51.096;17.190;2022-12-18T10:14:02;102346.23;;;-3.64;88.88
41706;BME280;27385;51.096;17.190;2022-12-18T10:16:47;102351.21;;;-3.62;88.91
41706;BME280;27385;51.096;17.190;2022-12-18T10:19:29;102359.31;;;-3.58;89.13
41706;BME280;27385;51.096;17.190;2022-12-18T10:22:13;102363.98;;;-3.54;88.94
41706;BME280;27385;51.096;17.190;2022-12-18T10:24:52;102363.02;;;-3.51;88.94
41706;BME280;27385;51.096;17.190;2022-12-18T10:27:26;102367.23;;;-3.53;88.40
41706;BME280;27385;51.096;17.190;2022-12-18T10:29:58;102370.83;;;-3.56;88.21
41706;BME280;27385;51.096;17.190;2022-12-18T10:32:32;102366.46;;;-3.61;88.26
41706;BME280;27385;51.096;17.190;2022-12-18T10:35:07;102363.09;;;-3.61;88.49
41706;BME280;27385;51.096;17.190;2022-12-18T10:38:00;102360.79;;;-3.56;88.93
41706;BME280;27385;51.096;17.190;2022-12-18T10:40:33;102355.89;;;-3.52;88.73
41706;BME280;27385;51.096;17.190;2022-12-18T10:43:22;102355.18;;;-3.52;88.35
41706;BME280;27385;51.096;17.190;2022-12-18T10:46:17;102356.79;;;-3.56;87.96
41706;BME280;27385;51.096;17.190;2022-12-18T10:48:54;102358.50;;;-3.57;88.39
41706;BME280;27385;51.096;17.190;2022-12-18T10:51:28;102361.89;;;-3.56;88.25
41706;BME280;27385;51.096;17.190;2022-12-18T10:54:06;102361.23;;;-3.57;88.42
41706;BME280;27385;51.096;17.190;2022-12-18T10:56:42;102361.70;;;-3.55;88.38
41706;BME280;27385;51.096;17.190;2022-12-18T10:59:17;102357.40;;;-3.55;88.22
41706;BME280;27385;51.096;17.190;2022-12-18T11:01:51;102362.58;;;-3.56;88.34
41706;BME280;27385;51.096;17.190;2022-12-18T11:04:26;102363.95;;;-3.55;88.23
41706;BME280;27385;51.096;17.190;2022-12-18T11:07:02;102363.39;;;-3.53;88.39
41706;BME280;27385;51.096;17.190;2022-12-18T11:09:36;102367.83;;;-3.49;88.42
41706;BME280;27385;51.096;17.190;2022-12-18T11:12:19;102368.50;;;-3.46;88.57
41706;BME280;27385;51.096;17.190;2022-12-18T11:14:52;102371.16;;;-3.44;88.32
41706;BME280;27385;51.096;17.190;2022-12-18T11:17:31;102371.65;;;-3.45;88.20
41706;BME280;27385;51.096;17.190;2022-12-18T11:20:05;102374.20;;;-3.44;88.41
41706;BME280;27385;51.096;17.190;2022-12-18T11:22:38;102376.31;;;-3.39;88.56
41706;BME280;27385;51.096;17.190;2022-12-18T11:25:20;102380.19;;;-3.36;88.48
41706;BME280;27385;51.096;17.190;2022-12-18T11:27:55;102381.11;;;-3.35;88.23
41706;BME280;27385;51.096;17.190;2022-12-18T11:30:29;102382.11;;;-3.31;88.49
41706;BME280;27385;51.096;17.190;2022-12-18T11:33:04;102386.58;;;-3.26;88.41
41706;BME280;27385;51.096;17.190;2022-12-18T11:35:47;102384.52;;;-3.23;88.50
41706;BME280;27385;51.096;17.190;2022-12-18T11:38:23;102393.07;;;-3.19;88.18
41706;BME280;27385;51.096;17.190;2022-12-18T11:40:58;102388.91;;;-3.18;88.22
41706;BME280;27385;51.096;17.190;2022-12-18T11:43:33;102384.81;;;-3.17;88.02
41706;BME280;27385;51.096;17.190;2022-12-18T11:46:12;102386.98;;;-3.17;87.97
41706;BME280;27385;51.096;17.190;2022-12-18T11:48:48;102383.24;;;-3.17;88.01
41706;BME280;27385;51.096;17.190;2022-12-18T11:51:28;102380.56;;;-3.16;88.09
41706;BME280;27385;51.096;17.190;2022-12-18T11:54:12;102374.91;;;-3.16;87.77
41706;BME280;27385;51.096;17.190;2022-12-18T11:56:48;102364.70;;;-3.20;87.56
41706;BME280;27385;51.096;17.190;2022-12-18T11:59:27;102363.39;;;-3.22;87.65
41706;BME280;27385;51.096;17.190;2022-12-18T12:02:11;102365.40;;;-3.25;87.25
41706;BME280;27385;51.096;17.190;2022-12-18T12:04:59;102366.08;;;-3.32;87.08
41706;BME280;27385;51.096;17.190;2022-12-18T12:07:42;102360.87;;;-3.33;87.59
41706;BME280;27385;51.096;17.190;2022-12-18T12:10:32;102362.16;;;-3.32;87.57
41706;BME280;27385;51.096;17.190;2022-12-18T12:13:23;102365.39;;;-3.30;87.74
41706;BME280;27385;51.096;17.190;2022-12-18T12:16:06;102357.00;;;-3.28;87.57
41706;BME280;27385;51.096;17.190;2022-12-18T12:18:50;102351.80;;;-3.30;87.55
41706;BME280;27385;51.096;17.190;2022-12-18T12:21:28;102354.02;;;-3.31;87.25
41706;BME280;27385;51.096;17.190;2022-12-18T12:24:08;102361.89;;;-3.37;87.12
41706;BME280;27385;51.096;17.190;2022-12-18T12:26:49;102358.72;;;-3.40;86.94
41706;BME280;27385;51.096;17.190;2022-12-18T12:29:35;102354.42;;;-3.49;86.65
41706;BME280;27385;51.096;17.190;2022-12-18T12:32:29;102349.46;;;-3.50;87.04
41706;BME280;27385;51.096;17.190;2022-12-18T12:35:18;102341.05;;;-3.48;87.63
41706;BME280;27385;51.096;17.190;2022-12-18T12:38:03;102342.46;;;-3.43;87.64
41706;BME280;27385;51.096;17.190;2022-12-18T12:40:41;102341.83;;;-3.41;87.32
41706;BME280;27385;51.096;17.190;2022-12-18T12:43:22;102346.05;;;-3.46;86.87
41706;BME280;27385;51.096;17.190;2022-12-18T12:46:00;102349.49;;;-3.47;87.17
41706;BME280;27385;51.096;17.190;2022-12-18T12:48:43;102352.43;;;-3.48;87.02
41706;BME280;27385;51.096;17.190;2022-12-18T12:51:22;102351.40;;;-3.48;87.00
41706;BME280;27385;51.096;17.190;2022-12-18T12:53:56;102353.42;;;-3.48;87.07
41706;BME280;27385;51.096;17.190;2022-12-18T12:56:36;102351.08;;;-3.49;87.26
41706;BME280;27385;51.096;17.190;2022-12-18T12:59:15;102352.27;;;-3.48;86.88
41706;BME280;27385;51.096;17.190;2022-12-18T13:01:57;102353.16;;;-3.52;86.98
41706;BME280;27385;51.096;17.190;2022-12-18T13:04:39;102357.23;;;-3.51;86.93
41706;BME280;27385;51.096;17.190;2022-12-18T13:07:16;102361.35;;;-3.52;87.15
41706;BME280;27385;51.096;17.190;2022-12-18T13:10:22;102360.17;;;-3.49;87.02
41706;BME280;27385;51.096;17.190;2022-12-18T13:12:56;102355.85;;;-3.51;87.19
41706;BME280;27385;51.096;17.190;2022-12-18T13:15:33;102354.44;;;-3.51;86.93
41706;BME280;27385;51.096;17.190;2022-12-18T13:18:17;102356.95;;;-3.52;87.05
41706;BME280;27385;51.096;17.190;2022-12-18T13:20:51;102356.25;;;-3.50;87.09
41706;BME280;27385;51.096;17.190;2022-12-18T13:23:42;102354.27;;;-3.49;86.96
41706;BME280;27385;51.096;17.190;2022-12-18T13:26:33;102351.49;;;-3.52;86.87